sensor_id;sensor_type;location;lat;lon;timestamp;temperature;humidity
19567;DHT22;9930;49.240;8.548;2022-10-26T00:01:42;16.50;81.70
19567;DHT22;9930;49.240;8.548;2022-10-26T00:04:13;16.60;81.90
19567;DHT22;9930;49.240;8.548;2022-10-26T00:06:44;16.50;82.00
19567;DHT22;9930;49.240;8.548;2022-10-26T00:09:12;16.50;82.20
19567;DHT22;9930;49.240;8.548;2022-10-26T00:11:41;16.60;82.10
19567;DHT22;9930;49.240;8.548;2022-10-26T00:14:12;16.60;81.90
19567;DHT22;9930;49.240;8.548;2022-10-26T00:16:45;16.60;81.90
19567;DHT22;9930;49.240;8.548;2022-10-26T00:19:12;16.60;81.90
19567;DHT22;9930;49.240;8.548;2022-10-26T00:21:43;16.60;82.00
19567;DHT22;9930;49.240;8.548;2022-10-26T00:24:15;16.60;82.10
19567;DHT22;9930;49.240;8.548;2022-10-26T00:26:43;16.60;82.00
19567;DHT22;9930;49.240;8.548;2022-10-26T00:29:17;16.60;82.00
19567;DHT22;9930;49.240;8.548;2022-10-26T00:31:43;16.60;82.10
19567;DHT22;9930;49.240;8.548;2022-10-26T00:34:12;16.60;82.00
19567;DHT22;9930;49.240;8.548;2022-10-26T00:36:45;16.60;82.00
19567;DHT22;9930;49.240;8.548;2022-10-26T00:39:12;16.60;82.00
19567;DHT22;9930;49.240;8.548;2022-10-26T00:41:42;16.60;82.00
19567;DHT22;9930;49.240;8.548;2022-10-26T00:47:37;16.60;82.20
19567;DHT22;9930;49.240;8.548;2022-10-26T00:50:34;16.60;82.30
19567;DHT22;9930;49.240;8.548;2022-10-26T00:53:13;16.60;82.80
19567;DHT22;9930;49.240;8.548;2022-10-26T00:55:48;16.60;82.10
19567;DHT22;9930;49.240;8.548;2022-10-26T00:58:16;16.60;82.20
19567;DHT22;9930;49.240;8.548;2022-10-26T01:00:43;16.60;82.10
19567;DHT22;9930;49.240;8.548;2022-10-26T01:03:13;16.60;82.20
19567;DHT22;9930;49.240;8.548;2022-10-26T01:05:44;16.60;82.20
19567;DHT22;9930;49.240;8.548;2022-10-26T01:08:14;16.60;82.30
19567;DHT22;9930;49.240;8.548;2022-10-26T01:10:42;16.60;82.30
19567;DHT22;9930;49.240;8.548;2022-10-26T01:13:17;16.60;82.30
19567;DHT22;9930;49.240;8.548;2022-10-26T01:24:57;16.70;82.40
19567;DHT22;9930;49.240;8.548;2022-10-26T01:27:47;16.60;82.30
19567;DHT22;9930;49.240;8.548;2022-10-26T01:39:28;16.60;82.20
19567;DHT22;9930;49.240;8.548;2022-10-26T01:42:02;16.60;82.20
19567;DHT22;9930;49.240;8.548;2022-10-26T01:44:35;16.60;82.00
19567;DHT22;9930;49.240;8.548;2022-10-26T01:47:13;16.60;82.20
19567;DHT22;9930;49.240;8.548;2022-10-26T01:49:47;16.60;82.20
19567;DHT22;9930;49.240;8.548;2022-10-26T01:52:19;16.60;82.10
19567;DHT22;9930;49.240;8.548;2022-10-26T01:54:47;16.60;82.10
19567;DHT22;9930;49.240;8.548;2022-10-26T01:57:18;16.70;82.20
19567;DHT22;9930;49.240;8.548;2022-10-26T02:02:56;16.60;82.30
19567;DHT22;9930;49.240;8.548;2022-10-26T02:11:29;16.70;82.10
19567;DHT22;9930;49.240;8.548;2022-10-26T02:16:53;16.70;82.10
19567;DHT22;9930;49.240;8.548;2022-10-26T02:22:27;16.70;82.20
19567;DHT22;9930;49.240;8.548;2022-10-26T02:25:00;16.70;82.20
19567;DHT22;9930;49.240;8.548;2022-10-26T02:27:35;16.70;82.10
19567;DHT22;9930;49.240;8.548;2022-10-26T02:30:13;16.70;82.10
19567;DHT22;9930;49.240;8.548;2022-10-26T02:32:47;16.80;82.20
19567;DHT22;9930;49.240;8.548;2022-10-26T02:35:18;16.80;82.30
19567;DHT22;9930;49.240;8.548;2022-10-26T02:37:50;16.80;82.30
19567;DHT22;9930;49.240;8.548;2022-10-26T02:40:21;16.80;82.30
19567;DHT22;9930;49.240;8.548;2022-10-26T02:42:51;16.80;82.30
19567;DHT22;9930;49.240;8.548;2022-10-26T02:45:24;16.80;82.30
19567;DHT22;9930;49.240;8.548;2022-10-26T02:47:56;16.80;82.40
19567;DHT22;9930;49.240;8.548;2022-10-26T02:50:27;16.80;82.30
19567;DHT22;9930;49.240;8.548;2022-10-26T02:53:27;16.80;82.30
19567;DHT22;9930;49.240;8.548;2022-10-26T02:56:08;16.70;82.40
19567;DHT22;9930;49.240;8.548;2022-10-26T02:58:50;16.70;82.30
19567;DHT22;9930;49.240;8.548;2022-10-26T03:01:21;16.70;82.30
19567;DHT22;9930;49.240;8.548;2022-10-26T03:03:47;16.70;82.30
19567;DHT22;9930;49.240;8.548;2022-10-26T03:06:22;16.80;82.50
19567;DHT22;9930;49.240;8.548;2022-10-26T03:08:51;16.70;82.50
19567;DHT22;9930;49.240;8.548;2022-10-26T03:11:21;16.70;82.50
19567;DHT22;9930;49.240;8.548;2022-10-26T03:13:47;16.70;82.60
19567;DHT22;9930;49.240;8.548;2022-10-26T03:16:15;16.70;82.60
19567;DHT22;9930;49.240;8.548;2022-10-26T03:18:47;16.70;82.70
19567;DHT22;9930;49.240;8.548;2022-10-26T03:21:13;16.70;82.70
19567;DHT22;9930;49.240;8.548;2022-10-26T03:23:45;16.70;82.70
19567;DHT22;9930;49.240;8.548;2022-10-26T03:26:14;16.70;82.70
19567;DHT22;9930;49.240;8.548;2022-10-26T03:28:43;16.70;82.60
19567;DHT22;9930;49.240;8.548;2022-10-26T03:31:15;16.70;82.60
19567;DHT22;9930;49.240;8.548;2022-10-26T03:33:42;16.70;82.60
19567;DHT22;9930;49.240;8.548;2022-10-26T03:36:14;16.70;82.60
19567;DHT22;9930;49.240;8.548;2022-10-26T03:38:45;16.60;82.70
19567;DHT22;9930;49.240;8.548;2022-10-26T03:41:13;16.70;82.80
19567;DHT22;9930;49.240;8.548;2022-10-26T03:43:44;16.70;82.80
19567;DHT22;9930;49.240;8.548;2022-10-26T03:46:13;16.70;82.80
19567;DHT22;9930;49.240;8.548;2022-10-26T03:48:47;16.70;82.90
19567;DHT22;9930;49.240;8.548;2022-10-26T03:51:13;16.70;82.90
19567;DHT22;9930;49.240;8.548;2022-10-26T03:53:48;16.60;82.80
19567;DHT22;9930;49.240;8.548;2022-10-26T03:56:14;16.60;83.10
19567;DHT22;9930;49.240;8.548;2022-10-26T03:58:43;16.60;82.90
19567;DHT22;9930;49.240;8.548;2022-10-26T04:01:15;16.60;83.00
19567;DHT22;9930;49.240;8.548;2022-10-26T04:03:42;16.60;83.10
19567;DHT22;9930;49.240;8.548;2022-10-26T04:06:12;16.60;83.00
19567;DHT22;9930;49.240;8.548;2022-10-26T04:08:42;16.50;83.10
19567;DHT22;9930;49.240;8.548;2022-10-26T04:11:13;16.60;83.20
19567;DHT22;9930;49.240;8.548;2022-10-26T04:13:43;16.60;83.30
19567;DHT22;9930;49.240;8.548;2022-10-26T04:16:14;16.50;83.30
19567;DHT22;9930;49.240;8.548;2022-10-26T04:18:43;16.50;83.40
19567;DHT22;9930;49.240;8.548;2022-10-26T04:21:13;16.50;83.30
19567;DHT22;9930;49.240;8.548;2022-10-26T04:23:42;16.50;83.30
19567;DHT22;9930;49.240;8.548;2022-10-26T04:26:12;16.50;83.30
19567;DHT22;9930;49.240;8.548;2022-10-26T04:28:44;16.50;83.30
19567;DHT22;9930;49.240;8.548;2022-10-26T04:31:12;16.50;83.40
19567;DHT22;9930;49.240;8.548;2022-10-26T04:33:45;16.50;83.30
19567;DHT22;9930;49.240;8.548;2022-10-26T04:36:13;16.50;83.50
19567;DHT22;9930;49.240;8.548;2022-10-26T04:38:42;16.50;83.40
19567;DHT22;9930;49.240;8.548;2022-10-26T04:41:14;16.40;83.40
19567;DHT22;9930;49.240;8.548;2022-10-26T04:43:40;16.40;83.40
19567;DHT22;9930;49.240;8.548;2022-10-26T04:46:06;16.40;83.50
19567;DHT22;9930;49.240;8.548;2022-10-26T04:48:32;16.40;83.60
19567;DHT22;9930;49.240;8.548;2022-10-26T04:50:58;16.40;83.70
19567;DHT22;9930;49.240;8.548;2022-10-26T04:53:25;16.40;83.70
19567;DHT22;9930;49.240;8.548;2022-10-26T04:55:58;16.40;83.80
19567;DHT22;9930;49.240;8.548;2022-10-26T04:58:27;16.40;83.90
19567;DHT22;9930;49.240;8.548;2022-10-26T05:00:55;16.40;83.80
19567;DHT22;9930;49.240;8.548;2022-10-26T05:03:21;16.40;83.80
19567;DHT22;9930;49.240;8.548;2022-10-26T05:05:47;16.40;83.80
19567;DHT22;9930;49.240;8.548;2022-10-26T05:08:13;16.40;83.80
19567;DHT22;9930;49.240;8.548;2022-10-26T05:10:51;16.40;83.90
19567;DHT22;9930;49.240;8.548;2022-10-26T05:13:19;16.40;84.00
19567;DHT22;9930;49.240;8.548;2022-10-26T05:15:45;16.40;83.90
19567;DHT22;9930;49.240;8.548;2022-10-26T05:18:16;16.40;84.00
19567;DHT22;9930;49.240;8.548;2022-10-26T05:20:44;16.40;84.20
19567;DHT22;9930;49.240;8.548;2022-10-26T05:23:12;16.40;84.10
19567;DHT22;9930;49.240;8.548;2022-10-26T05:25:44;16.40;84.20
19567;DHT22;9930;49.240;8.548;2022-10-26T05:28:14;16.40;84.10
19567;DHT22;9930;49.240;8.548;2022-10-26T05:30:43;16.40;84.20
19567;DHT22;9930;49.240;8.548;2022-10-26T05:33:13;16.40;84.30
19567;DHT22;9930;49.240;8.548;2022-10-26T05:35:43;16.40;84.30
19567;DHT22;9930;49.240;8.548;2022-10-26T05:38:14;16.40;84.30
19567;DHT22;9930;49.240;8.548;2022-10-26T05:40:49;16.40;84.40
19567;DHT22;9930;49.240;8.548;2022-10-26T05:43:20;16.40;84.50
19567;DHT22;9930;49.240;8.548;2022-10-26T05:45:52;16.40;84.50
19567;DHT22;9930;49.240;8.548;2022-10-26T05:48:19;16.40;84.40
19567;DHT22;9930;49.240;8.548;2022-10-26T05:50:45;16.40;84.40
19567;DHT22;9930;49.240;8.548;2022-10-26T05:53:14;16.40;84.40
19567;DHT22;9930;49.240;8.548;2022-10-26T05:55:44;16.40;84.40
19567;DHT22;9930;49.240;8.548;2022-10-26T05:58:18;16.50;84.50
19567;DHT22;9930;49.240;8.548;2022-10-26T06:04:24;16.40;84.60
19567;DHT22;9930;49.240;8.548;2022-10-26T06:06:57;16.40;84.70
19567;DHT22;9930;49.240;8.548;2022-10-26T06:09:24;16.40;84.50
19567;DHT22;9930;49.240;8.548;2022-10-26T06:11:50;16.40;84.50
19567;DHT22;9930;49.240;8.548;2022-10-26T06:14:16;16.40;84.50
19567;DHT22;9930;49.240;8.548;2022-10-26T06:25:57;16.40;84.90
19567;DHT22;9930;49.240;8.548;2022-10-26T06:32:17;16.40;84.90
19567;DHT22;9930;49.240;8.548;2022-10-26T06:34:48;16.50;84.70
19567;DHT22;9930;49.240;8.548;2022-10-26T06:37:16;16.50;84.80
19567;DHT22;9930;49.240;8.548;2022-10-26T06:39:47;16.50;84.80
19567;DHT22;9930;49.240;8.548;2022-10-26T06:42:17;16.50;84.80
19567;DHT22;9930;49.240;8.548;2022-10-26T06:44:44;16.50;84.80
19567;DHT22;9930;49.240;8.548;2022-10-26T06:47:32;16.50;84.90
19567;DHT22;9930;49.240;8.548;2022-10-26T06:53:41;16.50;85.40
19567;DHT22;9930;49.240;8.548;2022-10-26T06:56:19;16.50;85.20
19567;DHT22;9930;49.240;8.548;2022-10-26T06:58:45;16.60;85.10
19567;DHT22;9930;49.240;8.548;2022-10-26T07:01:16;16.60;85.10
19567;DHT22;9930;49.240;8.548;2022-10-26T07:03:45;16.60;85.10
19567;DHT22;9930;49.240;8.548;2022-10-26T07:06:13;16.60;85.10
19567;DHT22;9930;49.240;8.548;2022-10-26T07:08:47;16.60;85.10
19567;DHT22;9930;49.240;8.548;2022-10-26T07:11:15;16.60;85.10
19567;DHT22;9930;49.240;8.548;2022-10-26T07:13:43;16.70;85.10
19567;DHT22;9930;49.240;8.548;2022-10-26T07:16:14;16.70;85.10
19567;DHT22;9930;49.240;8.548;2022-10-26T07:18:44;16.70;85.10
19567;DHT22;9930;49.240;8.548;2022-10-26T07:21:13;16.80;85.10
19567;DHT22;9930;49.240;8.548;2022-10-26T07:23:43;16.70;85.00
19567;DHT22;9930;49.240;8.548;2022-10-26T07:26:13;16.80;85.10
19567;DHT22;9930;49.240;8.548;2022-10-26T07:28:47;16.80;85.10
19567;DHT22;9930;49.240;8.548;2022-10-26T07:31:13;16.80;85.10
19567;DHT22;9930;49.240;8.548;2022-10-26T07:33:48;16.90;85.20
19567;DHT22;9930;49.240;8.548;2022-10-26T07:36:13;16.90;85.30
19567;DHT22;9930;49.240;8.548;2022-10-26T07:38:44;16.90;85.20
19567;DHT22;9930;49.240;8.548;2022-10-26T07:41:14;16.90;85.10
19567;DHT22;9930;49.240;8.548;2022-10-26T07:43:43;17.00;85.10
19567;DHT22;9930;49.240;8.548;2022-10-26T07:46:17;17.00;85.10
19567;DHT22;9930;49.240;8.548;2022-10-26T07:48:43;17.00;85.20
19567;DHT22;9930;49.240;8.548;2022-10-26T07:51:13;17.00;85.10
19567;DHT22;9930;49.240;8.548;2022-10-26T07:53:43;17.10;85.20
19567;DHT22;9930;49.240;8.548;2022-10-26T07:56:13;17.00;85.30
19567;DHT22;9930;49.240;8.548;2022-10-26T07:58:43;17.10;85.30
19567;DHT22;9930;49.240;8.548;2022-10-26T08:01:14;17.10;85.40
19567;DHT22;9930;49.240;8.548;2022-10-26T08:03:43;17.10;85.50
19567;DHT22;9930;49.240;8.548;2022-10-26T08:06:13;17.10;85.30
19567;DHT22;9930;49.240;8.548;2022-10-26T08:08:43;17.20;85.30
19567;DHT22;9930;49.240;8.548;2022-10-26T08:11:13;17.20;85.30
19567;DHT22;9930;49.240;8.548;2022-10-26T08:13:43;17.20;85.30
19567;DHT22;9930;49.240;8.548;2022-10-26T08:16:13;17.20;85.30
19567;DHT22;9930;49.240;8.548;2022-10-26T08:18:43;17.20;85.30
19567;DHT22;9930;49.240;8.548;2022-10-26T08:21:14;17.30;85.50
19567;DHT22;9930;49.240;8.548;2022-10-26T08:23:43;17.30;85.60
19567;DHT22;9930;49.240;8.548;2022-10-26T08:26:18;17.30;85.70
19567;DHT22;9930;49.240;8.548;2022-10-26T08:28:47;17.30;85.80
19567;DHT22;9930;49.240;8.548;2022-10-26T08:31:16;17.40;85.90
19567;DHT22;9930;49.240;8.548;2022-10-26T08:33:44;17.40;85.90
19567;DHT22;9930;49.240;8.548;2022-10-26T08:36:25;17.50;86.00
19567;DHT22;9930;49.240;8.548;2022-10-26T08:38:53;17.50;85.90
19567;DHT22;9930;49.240;8.548;2022-10-26T08:41:40;17.60;85.90
19567;DHT22;9930;49.240;8.548;2022-10-26T08:47:24;17.70;85.80
19567;DHT22;9930;49.240;8.548;2022-10-26T08:52:37;17.80;85.60
19567;DHT22;9930;49.240;8.548;2022-10-26T08:55:24;17.80;85.30
19567;DHT22;9930;49.240;8.548;2022-10-26T08:58:00;17.80;85.20
19567;DHT22;9930;49.240;8.548;2022-10-26T09:00:33;17.90;85.50
19567;DHT22;9930;49.240;8.548;2022-10-26T09:02:59;18.00;86.10
19567;DHT22;9930;49.240;8.548;2022-10-26T09:05:34;18.10;86.30
19567;DHT22;9930;49.240;8.548;2022-10-26T09:09:17;18.10;86.30
19567;DHT22;9930;49.240;8.548;2022-10-26T09:11:55;18.20;86.40
19567;DHT22;9930;49.240;8.548;2022-10-26T09:24:00;18.80;86.20
19567;DHT22;9930;49.240;8.548;2022-10-26T09:28:52;19.20;86.00
19567;DHT22;9930;49.240;8.548;2022-10-26T09:31:21;19.30;85.60
19567;DHT22;9930;49.240;8.548;2022-10-26T09:33:52;19.40;85.10
19567;DHT22;9930;49.240;8.548;2022-10-26T09:36:22;19.40;84.40
19567;DHT22;9930;49.240;8.548;2022-10-26T09:41:51;19.60;84.70
19567;DHT22;9930;49.240;8.548;2022-10-26T09:44:41;19.70;84.60
19567;DHT22;9930;49.240;8.548;2022-10-26T09:52:45;20.00;84.10
19567;DHT22;9930;49.240;8.548;2022-10-26T09:55:15;20.10;84.40
19567;DHT22;9930;49.240;8.548;2022-10-26T09:57:49;20.30;84.60
19567;DHT22;9930;49.240;8.548;2022-10-26T10:00:20;20.40;84.60
19567;DHT22;9930;49.240;8.548;2022-10-26T10:02:51;20.50;84.30
19567;DHT22;9930;49.240;8.548;2022-10-26T10:08:25;20.80;83.90
19567;DHT22;9930;49.240;8.548;2022-10-26T10:11:04;20.90;82.60
19567;DHT22;9930;49.240;8.548;2022-10-26T10:13:34;21.10;83.50
19567;DHT22;9930;49.240;8.548;2022-10-26T10:16:07;21.30;83.30
19567;DHT22;9930;49.240;8.548;2022-10-26T10:18:58;21.40;82.50
19567;DHT22;9930;49.240;8.548;2022-10-26T10:21:44;21.40;81.80
19567;DHT22;9930;49.240;8.548;2022-10-26T10:24:27;21.60;81.40
19567;DHT22;9930;49.240;8.548;2022-10-26T10:29:49;21.90;81.00
19567;DHT22;9930;49.240;8.548;2022-10-26T10:32:24;22.00;80.60
19567;DHT22;9930;49.240;8.548;2022-10-26T10:34:56;22.00;79.70
19567;DHT22;9930;49.240;8.548;2022-10-26T10:42:43;22.20;79.30
19567;DHT22;9930;49.240;8.548;2022-10-26T10:45:21;22.20;78.60
19567;DHT22;9930;49.240;8.548;2022-10-26T10:48:10;22.20;78.40
19567;DHT22;9930;49.240;8.548;2022-10-26T10:51:06;22.30;77.80
19567;DHT22;9930;49.240;8.548;2022-10-26T10:59:31;22.30;77.70
19567;DHT22;9930;49.240;8.548;2022-10-26T11:06:04;22.30;76.90
19567;DHT22;9930;49.240;8.548;2022-10-26T11:08:52;22.30;77.20
19567;DHT22;9930;49.240;8.548;2022-10-26T11:11:33;22.30;77.50
19567;DHT22;9930;49.240;8.548;2022-10-26T11:14:14;22.30;77.20
19567;DHT22;9930;49.240;8.548;2022-10-26T11:16:46;22.30;76.50
19567;DHT22;9930;49.240;8.548;2022-10-26T11:20:11;22.30;77.10
19567;DHT22;9930;49.240;8.548;2022-10-26T11:23:13;22.30;76.30
19567;DHT22;9930;49.240;8.548;2022-10-26T11:30:59;22.30;76.40
19567;DHT22;9930;49.240;8.548;2022-10-26T11:33:35;22.30;76.50
19567;DHT22;9930;49.240;8.548;2022-10-26T11:36:17;22.30;76.40
19567;DHT22;9930;49.240;8.548;2022-10-26T11:38:52;22.30;76.50
19567;DHT22;9930;49.240;8.548;2022-10-26T11:41:55;22.30;76.50
19567;DHT22;9930;49.240;8.548;2022-10-26T11:44:36;22.30;76.00
19567;DHT22;9930;49.240;8.548;2022-10-26T11:47:18;22.30;76.20
19567;DHT22;9930;49.240;8.548;2022-10-26T11:50:24;22.30;76.30
19567;DHT22;9930;49.240;8.548;2022-10-26T11:53:23;22.30;75.90
19567;DHT22;9930;49.240;8.548;2022-10-26T11:55:53;22.40;75.90
19567;DHT22;9930;49.240;8.548;2022-10-26T11:58:26;22.50;76.50
19567;DHT22;9930;49.240;8.548;2022-10-26T12:01:00;22.50;76.00
19567;DHT22;9930;49.240;8.548;2022-10-26T12:03:38;22.50;75.70
19567;DHT22;9930;49.240;8.548;2022-10-26T12:06:14;22.60;76.10
19567;DHT22;9930;49.240;8.548;2022-10-26T12:09:07;22.60;76.30
19567;DHT22;9930;49.240;8.548;2022-10-26T12:12:13;22.70;75.70
19567;DHT22;9930;49.240;8.548;2022-10-26T12:15:12;22.80;75.80
19567;DHT22;9930;49.240;8.548;2022-10-26T12:18:15;22.80;75.70
19567;DHT22;9930;49.240;8.548;2022-10-26T12:21:03;22.90;75.10
19567;DHT22;9930;49.240;8.548;2022-10-26T12:23:38;23.00;75.20
19567;DHT22;9930;49.240;8.548;2022-10-26T12:29:13;23.10;
19567;DHT22;9930;49.240;8.548;2022-10-26T12:31:51;23.10;73.90
19567;DHT22;9930;49.240;8.548;2022-10-26T12:52:56;23.00;73.70
19567;DHT22;9930;49.240;8.548;2022-10-26T13:02:33;22.90;73.20
19567;DHT22;9930;49.240;8.548;2022-10-26T13:05:02;22.90;73.30
19567;DHT22;9930;49.240;8.548;2022-10-26T13:07:48;22.90;73.20
19567;DHT22;9930;49.240;8.548;2022-10-26T13:10:21;23.00;73.90
19567;DHT22;9930;49.240;8.548;2022-10-26T13:12:57;23.00;73.70
19567;DHT22;9930;49.240;8.548;2022-10-26T13:15:32;23.10;73.50
19567;DHT22;9930;49.240;8.548;2022-10-26T13:18:20;23.20;73.80
19567;DHT22;9930;49.240;8.548;2022-10-26T13:21:09;23.20;73.50
19567;DHT22;9930;49.240;8.548;2022-10-26T13:23:48;23.30;71.80
19567;DHT22;9930;49.240;8.548;2022-10-26T13:26:23;23.30;72.30
19567;DHT22;9930;49.240;8.548;2022-10-26T13:34:01;23.40;71.40
19567;DHT22;9930;49.240;8.548;2022-10-26T13:36:44;23.40;71.70
19567;DHT22;9930;49.240;8.548;2022-10-26T13:39:23;23.40;71.00
19567;DHT22;9930;49.240;8.548;2022-10-26T13:41:58;23.40;71.10
19567;DHT22;9930;49.240;8.548;2022-10-26T13:44:38;23.50;71.50
19567;DHT22;9930;49.240;8.548;2022-10-26T13:47:23;23.40;70.80
19567;DHT22;9930;49.240;8.548;2022-10-26T13:49:56;23.40;71.00
19567;DHT22;9930;49.240;8.548;2022-10-26T13:52:33;23.40;71.20
19567;DHT22;9930;49.240;8.548;2022-10-26T13:55:21;23.40;70.90
19567;DHT22;9930;49.240;8.548;2022-10-26T13:58:02;23.30;70.60
19567;DHT22;9930;49.240;8.548;2022-10-26T14:03:43;23.30;70.70
19567;DHT22;9930;49.240;8.548;2022-10-26T14:08:54;23.20;70.10
19567;DHT22;9930;49.240;8.548;2022-10-26T14:11:33;23.20;70.60
19567;DHT22;9930;49.240;8.548;2022-10-26T14:17:03;23.10;70.30
19567;DHT22;9930;49.240;8.548;2022-10-26T14:19:37;23.10;70.80
19567;DHT22;9930;49.240;8.548;2022-10-26T14:22:25;23.10;70.60
19567;DHT22;9930;49.240;8.548;2022-10-26T14:24:57;23.00;70.30
19567;DHT22;9930;49.240;8.548;2022-10-26T14:27:37;23.00;70.40
19567;DHT22;9930;49.240;8.548;2022-10-26T14:32:50;23.00;70.30
19567;DHT22;9930;49.240;8.548;2022-10-26T14:35:24;23.00;70.60
19567;DHT22;9930;49.240;8.548;2022-10-26T14:37:57;22.90;70.50
19567;DHT22;9930;49.240;8.548;2022-10-26T14:40:30;22.90;70.50
19567;DHT22;9930;49.240;8.548;2022-10-26T14:43:02;22.80;70.40
19567;DHT22;9930;49.240;8.548;2022-10-26T14:45:38;22.80;70.40
19567;DHT22;9930;49.240;8.548;2022-10-26T14:48:14;22.80;70.20
19567;DHT22;9930;49.240;8.548;2022-10-26T14:53:55;22.70;70.30
19567;DHT22;9930;49.240;8.548;2022-10-26T14:56:27;22.60;70.20
19567;DHT22;9930;49.240;8.548;2022-10-26T15:04:34;22.60;70.60
19567;DHT22;9930;49.240;8.548;2022-10-26T15:09:45;22.60;70.70
19567;DHT22;9930;49.240;8.548;2022-10-26T15:12:29;22.50;70.70
19567;DHT22;9930;49.240;8.548;2022-10-26T15:17:50;22.40;70.70
19567;DHT22;9930;49.240;8.548;2022-10-26T15:20:21;22.30;70.70
19567;DHT22;9930;49.240;8.548;2022-10-26T15:22:59;22.30;70.90
19567;DHT22;9930;49.240;8.548;2022-10-26T15:25:32;22.30;70.80
19567;DHT22;9930;49.240;8.548;2022-10-26T15:33:31;22.20;71.10
19567;DHT22;9930;49.240;8.548;2022-10-26T15:36:25;22.10;71.10
19567;DHT22;9930;49.240;8.548;2022-10-26T15:38:52;22.10;71.10
19567;DHT22;9930;49.240;8.548;2022-10-26T15:41:32;22.00;71.20
19567;DHT22;9930;49.240;8.548;2022-10-26T15:44:03;22.00;71.20
19567;DHT22;9930;49.240;8.548;2022-10-26T15:46:33;22.00;71.30
19567;DHT22;9930;49.240;8.548;2022-10-26T15:49:03;22.00;71.40
19567;DHT22;9930;49.240;8.548;2022-10-26T15:51:33;21.90;71.40
19567;DHT22;9930;49.240;8.548;2022-10-26T15:54:05;21.80;71.40
19567;DHT22;9930;49.240;8.548;2022-10-26T15:56:31;21.80;71.50
19567;DHT22;9930;49.240;8.548;2022-10-26T15:58:58;21.80;71.60
19567;DHT22;9930;49.240;8.548;2022-10-26T16:01:27;21.70;71.60
19567;DHT22;9930;49.240;8.548;2022-10-26T16:03:54;21.60;71.60
19567;DHT22;9930;49.240;8.548;2022-10-26T16:06:32;21.60;71.70
19567;DHT22;9930;49.240;8.548;2022-10-26T16:09:01;21.50;71.80
19567;DHT22;9930;49.240;8.548;2022-10-26T16:11:29;21.50;71.90
19567;DHT22;9930;49.240;8.548;2022-10-26T16:13:55;21.40;71.90
19567;DHT22;9930;49.240;8.548;2022-10-26T16:16:20;21.40;72.00
19567;DHT22;9930;49.240;8.548;2022-10-26T16:18:47;21.30;72.00
19567;DHT22;9930;49.240;8.548;2022-10-26T16:21:19;21.30;72.20
19567;DHT22;9930;49.240;8.548;2022-10-26T16:23:46;21.20;72.30
19567;DHT22;9930;49.240;8.548;2022-10-26T16:26:17;21.10;72.30
19567;DHT22;9930;49.240;8.548;2022-10-26T16:28:49;21.10;72.50
19567;DHT22;9930;49.240;8.548;2022-10-26T16:31:17;21.00;72.60
19567;DHT22;9930;49.240;8.548;2022-10-26T16:33:46;21.00;72.70
19567;DHT22;9930;49.240;8.548;2022-10-26T16:36:13;20.90;72.80
19567;DHT22;9930;49.240;8.548;2022-10-26T16:38:42;20.90;72.90
19567;DHT22;9930;49.240;8.548;2022-10-26T16:41:13;20.80;73.00
19567;DHT22;9930;49.240;8.548;2022-10-26T16:43:43;20.70;73.10
19567;DHT22;9930;49.240;8.548;2022-10-26T16:46:19;20.70;73.30
19567;DHT22;9930;49.240;8.548;2022-10-26T16:48:47;20.60;73.50
19567;DHT22;9930;49.240;8.548;2022-10-26T16:51:16;20.50;73.50
19567;DHT22;9930;49.240;8.548;2022-10-26T16:53:49;20.50;73.80
19567;DHT22;9930;49.240;8.548;2022-10-26T16:56:21;20.40;74.10
19567;DHT22;9930;49.240;8.548;2022-10-26T16:58:49;20.30;73.90
19567;DHT22;9930;49.240;8.548;2022-10-26T17:01:17;20.30;74.10
19567;DHT22;9930;49.240;8.548;2022-10-26T17:03:48;20.20;74.20
19567;DHT22;9930;49.240;8.548;2022-10-26T17:06:16;20.10;74.40
19567;DHT22;9930;49.240;8.548;2022-10-26T17:08:49;20.10;74.40
19567;DHT22;9930;49.240;8.548;2022-10-26T17:11:18;20.00;74.60
19567;DHT22;9930;49.240;8.548;2022-10-26T17:13:45;20.00;74.60
19567;DHT22;9930;49.240;8.548;2022-10-26T17:16:19;20.00;74.80
19567;DHT22;9930;49.240;8.548;2022-10-26T17:18:49;19.90;74.90
19567;DHT22;9930;49.240;8.548;2022-10-26T17:21:19;19.80;75.00
19567;DHT22;9930;49.240;8.548;2022-10-26T17:23:52;19.80;75.10
19567;DHT22;9930;49.240;8.548;2022-10-26T17:26:20;19.80;75.10
19567;DHT22;9930;49.240;8.548;2022-10-26T17:28:53;19.70;75.20
19567;DHT22;9930;49.240;8.548;2022-10-26T17:31:22;19.70;75.40
19567;DHT22;9930;49.240;8.548;2022-10-26T17:33:56;19.60;75.40
19567;DHT22;9930;49.240;8.548;2022-10-26T17:36:23;19.60;75.50
19567;DHT22;9930;49.240;8.548;2022-10-26T17:38:52;19.60;75.50
19567;DHT22;9930;49.240;8.548;2022-10-26T17:41:21;19.50;75.60
19567;DHT22;9930;49.240;8.548;2022-10-26T17:43:48;19.50;75.70
19567;DHT22;9930;49.240;8.548;2022-10-26T17:46:21;19.50;75.80
19567;DHT22;9930;49.240;8.548;2022-10-26T17:48:59;19.40;76.00
19567;DHT22;9930;49.240;8.548;2022-10-26T17:51:26;19.40;76.20
19567;DHT22;9930;49.240;8.548;2022-10-26T17:53:53;19.30;76.00
19567;DHT22;9930;49.240;8.548;2022-10-26T17:56:28;19.30;76.20
19567;DHT22;9930;49.240;8.548;2022-10-26T17:59:00;19.20;76.40
19567;DHT22;9930;49.240;8.548;2022-10-26T18:01:32;19.20;76.20
19567;DHT22;9930;49.240;8.548;2022-10-26T18:03:59;19.20;76.30
19567;DHT22;9930;49.240;8.548;2022-10-26T18:06:29;19.20;76.40
19567;DHT22;9930;49.240;8.548;2022-10-26T18:08:57;19.10;76.50
19567;DHT22;9930;49.240;8.548;2022-10-26T18:11:28;19.10;76.60
19567;DHT22;9930;49.240;8.548;2022-10-26T18:13:59;19.10;76.70
19567;DHT22;9930;49.240;8.548;2022-10-26T18:16:27;19.00;76.70
19567;DHT22;9930;49.240;8.548;2022-10-26T18:18:56;19.00;76.90
19567;DHT22;9930;49.240;8.548;2022-10-26T18:21:27;18.90;77.00
19567;DHT22;9930;49.240;8.548;2022-10-26T18:23:54;18.90;77.00
19567;DHT22;9930;49.240;8.548;2022-10-26T18:26:25;18.90;77.10
19567;DHT22;9930;49.240;8.548;2022-10-26T18:28:56;18.80;77.20
19567;DHT22;9930;49.240;8.548;2022-10-26T18:31:24;18.80;77.30
19567;DHT22;9930;49.240;8.548;2022-10-26T18:33:55;18.80;77.30
19567;DHT22;9930;49.240;8.548;2022-10-26T18:36:26;18.80;77.50
19567;DHT22;9930;49.240;8.548;2022-10-26T18:38:52;18.70;77.40
19567;DHT22;9930;49.240;8.548;2022-10-26T18:41:19;18.70;77.50
19567;DHT22;9930;49.240;8.548;2022-10-26T18:43:51;18.70;77.60
19567;DHT22;9930;49.240;8.548;2022-10-26T18:46:20;18.70;77.70
19567;DHT22;9930;49.240;8.548;2022-10-26T18:48:52;18.60;77.70
19567;DHT22;9930;49.240;8.548;2022-10-26T18:51:28;18.60;77.70
19567;DHT22;9930;49.240;8.548;2022-10-26T18:53:56;18.50;77.70
19567;DHT22;9930;49.240;8.548;2022-10-26T18:56:26;18.50;77.80
19567;DHT22;9930;49.240;8.548;2022-10-26T18:58:55;18.50;77.80
19567;DHT22;9930;49.240;8.548;2022-10-26T19:01:25;18.50;77.90
19567;DHT22;9930;49.240;8.548;2022-10-26T19:03:57;18.40;77.90
19567;DHT22;9930;49.240;8.548;2022-10-26T19:06:31;18.40;77.90
19567;DHT22;9930;49.240;8.548;2022-10-26T19:09:01;18.30;77.90
19567;DHT22;9930;49.240;8.548;2022-10-26T19:11:29;18.30;77.90
19567;DHT22;9930;49.240;8.548;2022-10-26T19:13:58;18.30;78.80
19567;DHT22;9930;49.240;8.548;2022-10-26T19:16:26;18.30;78.10
19567;DHT22;9930;49.240;8.548;2022-10-26T19:18:54;18.20;78.00